Time;durP1;ratioP1;P1;durP2;ratioP2;P2;SDS_P1;SDS_P2;PMS_P1;PMS_P2;Temp;Humidity;BMP_temperature;BMP_pressure;BME280_temperature;BME280_humidity;BME280_pressure;Samples;Min_cycle;Max_cycle;Signal;HPM_P1;HPM_P2
2024/02/20 00:01:01;;;;;;;25.98;8.13;;;;;;;6.65;100.00;102813.09;10454789;28;20040;-73
2024/02/20 00:06:03;;;;;;;20.17;6.97;;;;;;;6.68;100.00;102802.09;10457075;28;20349;-73
2024/02/20 00:11:05;;;;;;;21.75;6.10;;;;;;;6.76;100.00;102813.06;10461235;28;20029;-73
2024/02/20 00:16:06;;;;;;;22.15;7.75;;;;;;;6.86;100.00;102805.97;10461164;28;20065;-74
2024/02/20 00:21:06;;;;;;;33.50;6.95;;;;;;;6.98;100.00;102799.53;10460956;28;20056;-72
2024/02/20 00:26:07;;;;;;;29.83;8.80;;;;;;;7.11;100.00;102806.59;10461187;28;20041;-73
2024/02/20 00:31:08;;;;;;;16.67;6.22;;;;;;;7.25;100.00;102794.69;10461692;28;20033;-74
2024/02/20 00:36:08;;;;;;;28.48;8.30;;;;;;;7.38;100.00;102798.91;10458664;28;20527;-74
2024/02/20 00:41:09;;;;;;;24.88;8.15;;;;;;;7.50;100.00;102802.41;10460279;28;20108;-73
2024/02/20 00:46:17;;;;;;;20.40;7.55;;;;;;;7.57;100.00;102803.59;10460121;28;20037;-73
2024/02/20 00:51:19;;;;;;;32.75;8.88;;;;;;;7.62;100.00;102804.03;10460213;28;20124;-73
2024/02/20 00:56:19;;;;;;;16.40;7.70;;;;;;;7.63;100.00;102800.38;10458417;28;20119;-72
2024/02/20 01:01:20;;;;;;;21.40;8.40;;;;;;;7.65;100.00;102801.06;10460429;28;20060;-73
2024/02/20 01:06:20;;;;;;;31.85;7.60;;;;;;;7.64;100.00;102804.78;10459898;28;20110;-73
2024/02/20 01:11:20;;;;;;;20.40;7.00;;;;;;;7.65;100.00;102814.56;10459081;28;20090;-73
2024/02/20 01:16:21;;;;;;;27.98;8.05;;;;;;;7.68;100.00;102808.06;10457385;28;20033;-72
2024/02/20 01:21:21;;;;;;;23.90;5.45;;;;;;;7.69;100.00;102810.63;10458971;28;20120;-75
2024/02/20 01:26:22;;;;;;;26.90;7.32;;;;;;;7.65;100.00;102800.22;10457766;28;20115;-73
2024/02/20 01:31:22;;;;;;;20.63;5.38;;;;;;;7.71;100.00;102812.34;10458138;28;20461;-73
2024/02/20 01:36:24;;;;;;;16.10;7.18;;;;;;;7.69;100.00;102807.94;10457626;28;20102;-73
2024/02/20 01:41:25;;;;;;;30.20;9.05;;;;;;;7.71;100.00;102798.84;10456485;28;20045;-73
2024/02/20 01:46:26;;;;;;;22.63;6.43;;;;;;;7.67;100.00;102799.13;10458944;28;20041;-74
2024/02/20 01:51:26;;;;;;;25.40;7.60;;;;;;;7.67;100.00;102800.97;10458353;28;20037;-73
2024/02/20 01:56:26;;;;;;;15.90;5.53;;;;;;;7.64;100.00;102788.59;10439284;28;20037;-74
2024/02/20 02:01:27;;;;;;;14.20;5.18;;;;;;;7.59;100.00;102788.13;10456038;28;20072;-73
2024/02/20 02:06:31;;;;;;;19.35;5.53;;;;;;;7.51;100.00;102785.25;10457209;28;20366;-74
2024/02/20 02:11:32;;;;;;;21.95;6.03;;;;;;;7.50;100.00;102783.53;10457924;28;20461;-74
2024/02/20 02:16:32;;;;;;;33.92;9.10;;;;;;;7.46;100.00;102790.16;10454808;28;20431;-73
2024/02/20 02:21:33;;;;;;;20.63;6.18;;;;;;;7.42;100.00;102794.13;10455151;28;20094;-73
2024/02/20 02:26:34;;;;;;;20.30;7.63;;;;;;;7.40;100.00;102796.06;10456400;28;20354;-72
2024/02/20 02:31:35;;;;;;;23.00;5.90;;;;;;;7.36;100.00;102794.63;10453809;28;20034;-73
2024/02/20 02:36:35;;;;;;;19.95;7.68;;;;;;;7.38;100.00;102798.06;10437111;28;20048;-73
2024/02/20 02:41:36;;;;;;;26.85;6.50;;;;;;;7.38;100.00;102796.22;10455461;28;20048;-74
2024/02/20 02:46:36;;;;;;;28.05;8.02;;;;;;;7.41;100.00;102805.88;10453443;28;20029;-73
2024/02/20 02:51:36;;;;;;;12.50;6.68;;;;;;;7.40;100.00;102805.03;10455313;28;20068;-73
2024/02/20 02:56:37;;;;;;;46.47;8.13;;;;;;;7.45;100.00;102813.56;10455992;28;20124;-73
2024/02/20 03:01:37;;;;;;;25.40;7.28;;;;;;;7.47;100.00;102808.06;10454045;28;20060;-74
2024/02/20 03:06:39;;;;;;;48.53;8.13;;;;;;;7.50;100.00;102805.09;10455048;28;20489;-72
2024/02/20 03:11:40;;;;;;;29.42;8.07;;;;;;;7.52;100.00;102808.50;10455348;28;20472;-73
2024/02/20 03:16:40;;;;;;;21.02;7.78;;;;;;;7.51;100.00;102793.34;10454133;28;20033;-73
2024/02/20 03:21:41;;;;;;;31.15;7.50;;;;;;;7.54;100.00;102779.59;10436204;28;20503;-73
2024/02/20 03:26:42;;;;;;;28.90;8.25;;;;;;;7.57;100.00;102779.31;10455421;28;20095;-73
2024/02/20 03:31:42;;;;;;;29.45;9.23;;;;;;;7.54;100.00;102774.19;10454381;28;20162;-72
2024/02/20 03:36:44;;;;;;;31.70;6.82;;;;;;;7.56;100.00;102771.34;10435671;28;20041;-73
2024/02/20 03:41:45;;;;;;;27.55;7.85;;;;;;;7.55;100.00;102773.19;10456070;28;20480;-73
2024/02/20 03:46:45;;;;;;;19.50;6.28;;;;;;;7.56;100.00;102765.97;10462854;28;20040;-73
2024/02/20 03:51:46;;;;;;;30.77;7.35;;;;;;;7.52;100.00;102762.69;10461313;28;20420;-73
2024/02/20 03:56:47;;;;;;;25.88;7.20;;;;;;;7.54;100.00;102760.72;10461656;28;20029;-73
2024/02/20 04:01:47;;;;;;;49.75;8.85;;;;;;;7.55;100.00;102761.56;10460957;28;20086;-73
2024/02/20 04:06:48;;;;;;;33.55;8.40;;;;;;;7.57;100.00;102751.53;10461927;28;20398;-73
2024/02/20 04:11:48;;;;;;;17.90;7.45;;;;;;;7.56;100.00;102750.66;10461282;28;20076;-75
2024/02/20 04:16:49;;;;;;;34.03;7.47;;;;;;;7.55;100.00;102737.31;10459263;28;20127;-73
2024/02/20 04:21:49;;;;;;;24.63;8.35;;;;;;;7.51;100.00;102743.97;10461304;28;20045;-73
2024/02/20 04:26:50;;;;;;;24.95;6.97;;;;;;;7.50;100.00;102756.59;10459300;28;20476;-73
2024/02/20 04:31:50;;;;;;;32.17;8.30;;;;;;;7.47;100.00;102754.16;10459813;28;20073;-73
2024/02/20 04:36:50;;;;;;;31.45;9.55;;;;;;;7.44;100.00;102754.41;10459225;28;20055;-74
2024/02/20 04:41:51;;;;;;;29.85;7.43;;;;;;;7.39;100.00;102751.25;10459802;28;20404;-74
2024/02/20 04:46:51;;;;;;;23.55;7.28;;;;;;;7.35;100.00;102763.28;10458155;28;20090;-74
2024/02/20 04:51:52;;;;;;;21.75;7.25;;;;;;;7.35;100.00;102758.75;10458971;28;20037;-73
2024/02/20 04:56:52;;;;;;;23.02;7.80;;;;;;;7.36;100.00;102768.53;10460127;28;20041;-73
2024/02/20 05:01:52;;;;;;;31.38;7.95;;;;;;;7.38;100.00;102760.31;10459361;28;20037;-73
2024/02/20 05:06:53;;;;;;;36.33;8.25;;;;;;;7.36;100.00;102754.19;10458505;28;20037;-74
2024/02/20 05:11:54;;;;;;;34.08;7.60;;;;;;;7.35;100.00;102744.41;10458988;28;20087;-73
2024/02/20 05:16:54;;;;;;;15.00;5.68;;;;;;;7.34;100.00;102740.88;10458358;28;20032;-73
2024/02/20 05:21:54;;;;;;;36.10;8.35;;;;;;;7.37;100.00;102743.31;10459225;28;20033;-74
2024/02/20 05:26:55;;;;;;;38.70;8.88;;;;;;;7.35;100.00;102733.63;10462630;28;20025;-75
2024/02/20 05:31:58;;;;;;;31.17;7.40;;;;;;;7.29;100.00;102732.31;10462843;28;20041;-74
2024/02/20 05:36:59;;;;;;;25.10;7.15;;;;;;;7.21;100.00;102735.69;10440812;28;20053;-73
2024/02/20 05:41:59;;;;;;;19.02;7.28;;;;;;;7.19;100.00;102748.41;10458741;28;20389;-73
2024/02/20 05:46:59;;;;;;;18.17;6.70;;;;;;;7.14;100.00;102744.38;10458710;28;20376;-72
2024/02/20 05:52:00;;;;;;;30.50;8.35;;;;;;;7.12;100.00;102743.69;10458569;28;20060;-73
2024/02/20 05:57:01;;;;;;;18.00;5.70;;;;;;;7.10;100.00;102751.03;10457639;28;20136;-75
2024/02/20 06:02:01;;;;;;;19.33;6.75;;;;;;;7.07;100.00;102748.59;10457049;28;20040;-73
2024/02/20 06:07:02;;;;;;;29.25;7.47;;;;;;;7.02;100.00;102746.31;10456392;28;20540;-73
2024/02/20 06:12:04;;;;;;;16.63;6.47;;;;;;;6.97;100.00;102746.66;10457080;28;20037;-73
2024/02/20 06:17:05;;;;;;;19.45;7.68;;;;;;;6.99;100.00;102741.16;10456518;28;20091;-74
2024/02/20 06:22:06;;;;;;;26.67;8.30;;;;;;;7.03;100.00;102737.22;10456293;28;20090;-75
2024/02/20 06:27:07;;;;;;;26.70;7.70;;;;;;;7.03;100.00;102731.84;10455824;28;20029;-74
2024/02/20 06:32:08;;;;;;;23.42;6.43;;;;;;;6.97;100.00;102725.13;10455342;28;20045;-74
2024/02/20 06:37:08;;;;;;;20.67;7.95;;;;;;;6.95;100.00;102720.84;10455726;28;20053;-73
2024/02/20 06:42:09;;;;;;;25.33;7.00;;;;;;;6.90;100.00;102717.69;10454973;28;20043;-72
2024/02/20 06:47:13;;;;;;;40.20;10.32;;;;;;;6.80;100.00;102724.84;10455139;28;20037;-73
2024/02/20 06:52:13;;;;;;;16.95;6.85;;;;;;;6.75;100.00;102717.97;10455475;28;20068;-73
2024/02/20 06:57:14;;;;;;;32.78;7.30;;;;;;;6.68;100.00;102724.03;10455478;28;20117;-72
2024/02/20 07:02:14;;;;;;;24.20;10.45;;;;;;;6.63;100.00;102735.16;10455374;28;20473;-72
2024/02/20 07:07:14;;;;;;;21.38;7.50;;;;;;;6.58;100.00;102725.75;10454608;28;20086;-73
2024/02/20 07:12:15;;;;;;;30.10;10.73;;;;;;;6.66;100.00;102713.34;10454764;28;20128;-73
2024/02/20 07:17:15;;;;;;;27.55;9.38;;;;;;;6.79;100.00;102725.81;10459579;28;20035;-72
2024/02/20 07:22:16;;;;;;;32.15;9.60;;;;;;;6.95;100.00;102713.59;10462931;28;20445;-73
2024/02/20 07:27:16;;;;;;;12.32;6.20;;;;;;;7.11;100.00;102710.47;10462073;28;20461;-72
2024/02/20 07:32:17;;;;;;;32.65;9.55;;;;;;;7.30;100.00;102707.06;10463146;28;20423;-74
2024/02/20 07:37:17;;;;;;;15.52;8.40;;;;;;;7.48;100.00;102717.25;10463028;28;20354;-73
2024/02/20 07:42:18;;;;;;;16.65;7.40;;;;;;;7.65;100.00;102713.94;10462546;28;20033;-74
2024/02/20 07:47:18;;;;;;;31.27;11.52;;;;;;;7.84;100.00;102726.66;10460731;28;20388;-74
2024/02/20 07:52:18;;;;;;;39.47;10.93;;;;;;;7.94;100.00;102722.16;10461765;28;20082;-73
2024/02/20 07:57:19;;;;;;;22.88;8.65;;;;;;;7.89;100.00;102722.59;10461508;28;20148;-74
2024/02/20 08:02:19;;;;;;;25.13;7.63;;;;;;;7.91;100.00;102731.41;10442622;28;20048;-73
2024/02/20 08:07:20;;;;;;;24.65;9.25;;;;;;;7.90;100.00;102737.78;10460396;28;20484;-73
2024/02/20 08:12:20;;;;;;;18.48;5.28;;;;;;;7.94;100.00;102730.25;10461639;28;20045;-73
2024/02/20 08:17:21;;;;;;;21.17;7.53;;;;;;;7.99;100.00;102732.56;10461753;28;20358;-72
2024/02/20 08:22:22;;;;;;;13.77;6.60;;;;;;;8.05;100.00;102722.09;10460316;28;20067;-72
2024/02/20 08:27:23;;;;;;;23.23;7.30;;;;;;;8.16;100.00;102724.66;10461599;28;20076;-74
2024/02/20 08:32:23;;;;;;;19.08;6.95;;;;;;;8.30;100.00;102725.31;10460037;28;20056;-72
2024/02/20 08:37:24;;;;;;;35.13;8.77;;;;;;;8.44;100.00;102727.63;10458762;28;20461;-72
2024/02/20 08:42:24;;;;;;;12.98;5.45;;;;;;;8.47;100.00;102718.41;10460166;28;20036;-73
2024/02/20 08:47:24;;;;;;;30.48;8.88;;;;;;;8.42;100.00;102715.25;10460119;28;20040;-73
2024/02/20 08:52:25;;;;;;;19.83;7.78;;;;;;;8.46;100.00;102711.31;10459192;28;20447;-72
2024/02/20 08:57:25;;;;;;;20.60;7.22;;;;;;;8.50;100.00;102710.88;10458879;28;20105;-73
2024/02/20 09:02:26;;;;;;;34.78;7.30;;;;;;;8.58;100.00;102704.75;10459592;28;20044;-73
2024/02/20 09:07:26;;;;;;;21.25;7.22;;;;;;;8.73;100.00;102702.50;10458839;28;20484;-73
2024/02/20 09:12:26;;;;;;;32.50;7.22;;;;;;;8.91;100.00;102703.53;10458946;28;20056;-74
2024/02/20 09:17:28;;;;;;;25.02;5.93;;;;;;;9.03;100.00;102702.38;10457932;28;20075;-73
2024/02/20 09:22:29;;;;;;;26.25;7.57;;;;;;;9.16;100.00;102699.38;10457725;28;20037;-74
2024/02/20 09:27:29;;;;;;;26.15;6.75;;;;;;;9.32;100.00;102693.38;10459046;28;20032;-73
2024/02/20 09:32:29;;;;;;;20.48;6.72;;;;;;;9.45;100.00;102691.22;10457847;28;20037;-73
2024/02/20 09:37:30;;;;;;;9.80;5.60;;;;;;;9.62;100.00;102686.03;10455758;28;20072;-73
2024/02/20 09:42:30;;;;;;;27.20;6.35;;;;;;;9.74;100.00;102683.00;10457114;28;20086;-73
2024/02/20 09:47:31;;;;;;;26.65;7.20;;;;;;;9.80;100.00;102678.88;10456120;28;20151;-73
2024/02/20 09:52:31;;;;;;;17.90;7.45;;;;;;;9.79;100.00;102682.53;10438654;28;20500;-73
2024/02/20 09:57:32;;;;;;;19.45;5.70;;;;;;;9.89;100.00;102672.56;10456266;28;20107;-73
2024/02/20 10:02:32;;;;;;;27.33;7.03;;;;;;;9.99;100.00;102673.34;10438809;28;20087;-73
2024/02/20 10:07:38;;;;;;;16.15;6.88;;;;;;;10.14;100.00;102675.53;10438619;28;20461;-73
2024/02/20 10:12:41;;;;;;;23.73;6.93;;;;;;;10.45;100.00;102659.84;10456492;28;20543;-74
2024/02/20 10:17:42;;;;;;;11.30;5.60;;;;;;;10.65;100.00;102669.53;10456245;28;20112;-73
2024/02/20 10:22:42;;;;;;;25.88;7.97;;;;;;;10.99;100.00;102659.84;10456458;28;20037;-72
2024/02/20 10:27:43;;;;;;;19.40;7.38;;;;;;;11.51;100.00;102658.00;10454786;28;20048;-72
2024/02/20 10:32:44;;;;;;;22.42;6.97;;;;;;;12.01;100.00;102661.84;10455759;28;20044;-73
2024/02/20 10:37:44;;;;;;;19.77;7.55;;;;;;;12.08;100.00;102655.56;10455684;28;20470;-74
2024/02/20 10:42:44;;;;;;;30.85;9.43;;;;;;;12.33;100.00;102648.34;10454693;28;20037;-73
2024/02/20 10:47:45;;;;;;;11.45;6.10;;;;;;;12.90;100.00;102652.16;10454602;28;20063;-75
2024/02/20 10:52:46;;;;;;;19.65;7.68;;;;;;;12.84;100.00;102652.84;10454600;28;20108;-73
2024/02/20 10:57:48;;;;;;;16.60;6.95;;;;;;;12.65;100.00;102649.41;10453868;28;20060;-73
2024/02/20 11:02:49;;;;;;;13.38;6.07;;;;;;;13.09;100.00;102642.81;10454510;28;20029;-74
2024/02/20 11:07:49;;;;;;;13.30;7.72;;;;;;;13.07;100.00;102647.56;10454776;28;20069;-75
2024/02/20 11:12:50;;;;;;;16.08;6.03;;;;;;;13.36;100.00;102644.31;10436796;28;20063;-73
2024/02/20 11:17:50;;;;;;;16.77;6.68;;;;;;;12.97;100.00;102653.16;10454457;28;20037;-74
2024/02/20 11:22:51;;;;;;;24.40;6.28;;;;;;;12.48;100.00;102637.69;10456027;28;20045;-74
2024/02/20 11:27:51;;;;;;;17.52;7.47;;;;;;;11.97;100.00;102627.88;10453116;28;20051;-74
2024/02/20 11:32:53;;;;;;;17.30;6.50;;;;;;;12.74;100.00;102628.53;10436422;28;20048;-73
2024/02/20 11:37:54;;;;;;;17.52;6.95;;;;;;;12.88;100.00;102605.25;10452498;28;20060;-74
2024/02/20 11:42:57;;;;;;;20.95;6.70;;;;;;;13.07;100.00;102598.59;10455485;28;20045;-73
2024/02/20 11:48:04;;;;;;;19.73;6.30;;;;;;;12.69;100.00;102593.69;10454093;28;20491;-73
2024/02/20 11:53:05;;;;;;;17.98;6.90;;;;;;;12.29;100.00;102570.94;10451981;28;20116;-74
2024/02/20 11:58:06;;;;;;;25.35;7.30;;;;;;;12.66;100.00;102566.84;10452866;28;20041;-74
2024/02/20 12:03:10;;;;;;;20.42;6.82;;;;;;;12.78;100.00;102553.78;10455428;28;20219;-73
2024/02/20 12:08:14;;;;;;;33.97;8.23;;;;;;;12.47;100.00;102553.59;10460101;28;20406;-73
2024/02/20 12:13:15;;;;;;;30.85;8.57;;;;;;;12.16;100.00;102558.88;10460103;28;20202;-73
2024/02/20 12:18:26;;;;;;;21.15;8.10;;;;;;;12.54;100.00;102516.59;10459344;28;20124;-74
2024/02/20 12:23:26;;;;;;;25.80;8.07;;;;;;;12.10;100.00;102541.38;10459118;28;20033;-73
2024/02/20 12:28:26;;;;;;;25.92;8.27;;;;;;;11.67;100.00;102523.41;10460717;28;20033;-74
2024/02/20 12:33:27;;;;;;;26.52;11.02;;;;;;;11.41;100.00;102511.63;10459309;28;20033;-75
2024/02/20 12:38:28;;;;;;;23.85;10.32;;;;;;;11.36;100.00;102508.56;10457498;28;20053;-74
2024/02/20 12:43:29;;;;;;;25.80;8.40;;;;;;;11.55;100.00;102509.28;10458167;28;20031;-73
2024/02/20 12:48:29;;;;;;;25.95;8.88;;;;;;;11.27;100.00;102498.69;10460538;28;20033;-73
2024/02/20 12:53:30;;;;;;;20.13;9.55;;;;;;;10.88;100.00;102482.91;10458637;28;20048;-74
2024/02/20 12:58:30;;;;;;;26.17;11.23;;;;;;;10.86;100.00;102476.78;10458968;28;20102;-75
2024/02/20 13:03:30;;;;;;;20.13;8.00;;;;;;;11.04;100.00;102471.31;10459446;28;20133;-74
2024/02/20 13:08:31;;;;;;;27.55;10.80;;;;;;;11.30;100.00;102462.28;10459387;28;20465;-73
2024/02/20 13:13:31;;;;;;;30.45;11.55;;;;;;;11.28;100.00;102446.16;10457296;28;20037;-74
2024/02/20 13:18:32;;;;;;;30.13;9.75;;;;;;;11.35;100.00;102438.19;10458347;28;20036;-73
2024/02/20 13:23:32;;;;;;;25.63;7.93;;;;;;;11.08;100.00;102413.03;10457418;28;20150;-74
2024/02/20 13:28:33;;;;;;;19.20;8.18;;;;;;;11.25;100.00;102408.50;10457174;28;20060;-75
2024/02/20 13:33:35;;;;;;;18.55;8.30;;;;;;;11.32;100.00;102406.81;10456232;28;20271;-74
2024/02/20 13:38:40;;;;;;;23.50;7.25;;;;;;;11.22;100.00;102395.28;10457384;28;20388;-75
2024/02/20 13:43:40;;;;;;;17.00;7.57;;;;;;;11.17;100.00;102403.06;10457324;28;20041;-73
2024/02/20 13:48:41;;;;;;;31.27;8.63;;;;;;;11.08;100.00;102412.19;10456471;28;20037;-73
2024/02/20 13:53:41;;;;;;;21.55;6.30;;;;;;;11.03;100.00;102417.25;10456488;28;20045;-73
2024/02/20 13:58:41;;;;;;;34.78;9.52;;;;;;;11.17;100.00;102408.50;10456950;28;20033;-73
2024/02/20 14:03:43;;;;;;;18.95;7.78;;;;;;;11.08;100.00;102388.63;10456814;28;20036;-74
2024/02/20 14:08:45;;;;;;;19.60;8.02;;;;;;;11.06;100.00;102400.66;10454974;28;20041;-75
2024/02/20 14:13:45;;;;;;;18.92;8.20;;;;;;;10.93;100.00;102395.69;10455340;28;20055;-73
2024/02/20 14:18:46;;;;;;;14.80;6.82;;;;;;;10.75;100.00;102403.91;10456233;28;20040;-74
2024/02/20 14:23:46;;;;;;;21.17;6.78;;;;;;;10.63;100.00;102406.06;10455704;28;20029;-73
2024/02/20 14:28:47;;;;;;;30.92;9.95;;;;;;;10.56;100.00;102399.59;10454929;28;20037;-73
2024/02/20 14:33:48;;;;;;;29.95;8.23;;;;;;;10.39;100.00;102404.03;10454099;28;20055;-73
2024/02/20 14:38:48;;;;;;;28.05;9.60;;;;;;;10.28;100.00;102407.03;10454787;28;20122;-75
2024/02/20 14:43:49;;;;;;;23.65;8.80;;;;;;;10.19;100.00;102397.97;10454727;28;20464;-73
2024/02/20 14:48:49;;;;;;;20.58;8.57;;;;;;;10.27;100.00;102405.31;10454572;28;20029;-75
2024/02/20 14:53:49;;;;;;;29.75;9.93;;;;;;;10.26;100.00;102398.19;10436891;28;20040;-74
2024/02/20 14:58:50;;;;;;;23.63;10.30;;;;;;;10.39;100.00;102401.34;10455686;28;20446;-74
2024/02/20 15:03:50;;;;;;;25.55;8.43;;;;;;;10.32;100.00;102386.75;10455126;28;20044;-74
2024/02/20 15:08:51;;;;;;;20.85;8.50;;;;;;;10.29;100.00;102384.34;10454306;28;20087;-74
2024/02/20 15:13:51;;;;;;;21.52;7.45;;;;;;;10.34;100.00;102375.72;10453374;28;20032;-74
2024/02/20 15:18:51;;;;;;;23.63;7.85;;;;;;;10.33;100.00;102361.34;10436865;28;20112;-75
2024/02/20 15:23:52;;;;;;;24.92;8.07;;;;;;;10.42;100.00;102368.50;10452465;28;20076;-74
2024/02/20 15:28:52;;;;;;;28.45;8.93;;;;;;;10.42;100.00;102371.22;10453788;28;20067;-74
2024/02/20 15:33:53;;;;;;;16.05;7.25;;;;;;;10.46;100.00;102355.50;10454248;28;20073;-74
2024/02/20 15:38:53;;;;;;;32.50;8.23;;;;;;;10.41;100.00;102347.88;10459983;28;20476;-73
2024/02/20 15:43:53;;;;;;;23.65;7.15;;;;;;;10.47;100.00;102330.97;10462406;28;20380;-74
2024/02/20 15:48:54;;;;;;;32.80;7.82;;;;;;;10.43;100.00;102343.16;10462662;28;20202;-74
2024/02/20 15:53:55;;;;;;;21.58;7.70;;;;;;;10.56;100.00;102355.38;10461523;28;20036;-75
2024/02/20 15:58:55;;;;;;;12.88;6.15;;;;;;;10.51;100.00;102342.34;10461401;28;20048;-74
2024/02/20 16:03:57;;;;;;;21.80;8.23;;;;;;;10.35;100.00;102343.09;10460961;28;20354;-74
2024/02/20 16:08:57;;;;;;;16.10;7.93;;;;;;;10.37;100.00;102334.78;10459736;28;20666;-74
2024/02/20 16:13:58;;;;;;;26.77;5.90;;;;;;;10.39;100.00;102327.38;10460811;28;20090;-74
2024/02/20 16:18:58;;;;;;;23.35;7.28;;;;;;;10.36;100.00;102314.16;10458588;28;20033;-74
2024/02/20 16:23:59;;;;;;;12.48;5.88;;;;;;;10.32;100.00;102315.50;10460367;28;20561;-74
2024/02/20 16:28:59;;;;;;;16.58;6.25;;;;;;;10.25;100.00;102320.66;10459047;28;20376;-73
2024/02/20 16:34:00;;;;;;;15.65;7.93;;;;;;;10.14;100.00;102312.81;10460055;28;20477;-73
2024/02/20 16:39:00;;;;;;;22.10;7.22;;;;;;;10.11;100.00;102334.78;10458548;28;20053;-74
2024/02/20 16:44:01;;;;;;;16.02;7.07;;;;;;;10.08;100.00;102317.00;10458523;28;20112;-74
2024/02/20 16:49:03;;;;;;;14.52;7.72;;;;;;;10.05;100.00;102319.19;10456082;28;20043;-75
2024/02/20 16:54:03;;;;;;;27.20;7.97;;;;;;;10.02;100.00;102326.63;10458038;28;20036;-74
2024/02/20 16:59:04;;;;;;;39.63;8.65;;;;;;;10.04;100.00;102314.78;10458515;28;20369;-74
2024/02/20 17:04:09;;;;;;;22.38;7.53;;;;;;;9.98;100.00;102317.09;10458553;28;20037;-74
2024/02/20 17:09:09;;;;;;;23.75;6.93;;;;;;;9.93;100.00;102305.94;10458470;28;20178;-75
2024/02/20 17:14:13;;;;;;;13.73;6.50;;;;;;;9.86;100.00;102299.47;10441632;28;20075;-75
2024/02/20 17:19:13;;;;;;;22.23;7.43;;;;;;;9.91;100.00;102296.25;10457056;28;20029;-74
2024/02/20 17:24:14;;;;;;;18.25;7.22;;;;;;;9.85;100.00;102303.16;10458470;28;20195;-74
2024/02/20 17:29:14;;;;;;;15.07;5.35;;;;;;;9.79;100.00;102295.66;10458671;28;20033;-73
2024/02/20 17:34:15;;;;;;;23.17;8.07;;;;;;;9.87;100.00;102316.53;10458588;28;20040;-75
2024/02/20 17:39:15;;;;;;;18.58;6.25;;;;;;;9.82;100.00;102302.63;10458146;28;20399;-76
2024/02/20 17:44:16;;;;;;;16.73;6.30;;;;;;;9.82;100.00;102326.97;10457484;28;20133;-74
2024/02/20 17:49:16;;;;;;;24.10;5.50;;;;;;;9.90;100.00;102311.66;10457235;28;20076;-74
2024/02/20 17:54:16;;;;;;;16.02;4.10;;;;;;;9.83;100.00;102320.53;10458167;28;20376;-74
2024/02/20 17:59:17;;;;;;;19.98;6.55;;;;;;;9.85;100.00;102324.78;10455101;28;20136;-74
2024/02/20 18:04:17;;;;;;;16.05;5.75;;;;;;;9.83;100.00;102325.94;10438987;28;20043;-75
2024/02/20 18:09:20;;;;;;;19.38;6.65;;;;;;;9.90;100.00;102322.47;10455813;28;20433;-75
2024/02/20 18:14:20;;;;;;;19.25;5.70;;;;;;;9.81;100.00;102322.56;10455055;28;20087;-74
2024/02/20 18:19:20;;;;;;;24.02;5.30;;;;;;;9.87;100.00;102320.09;10456115;28;20366;-74
2024/02/20 18:24:21;;;;;;;19.40;6.55;;;;;;;9.84;100.00;102323.09;10454957;28;20064;-74
2024/02/20 18:29:21;;;;;;;18.88;5.88;;;;;;;9.77;100.00;102292.28;10455352;28;20068;-74
2024/02/20 18:34:22;;;;;;;11.63;5.30;;;;;;;9.78;100.00;102299.38;10453929;28;20111;-75
2024/02/20 18:39:22;;;;;;;13.77;4.75;;;;;;;9.78;100.00;102302.09;10456837;28;20465;-74
2024/02/20 18:44:22;;;;;;;18.48;4.68;;;;;;;9.76;100.00;102307.69;10455343;28;20044;-74
2024/02/20 18:49:23;;;;;;;16.77;4.97;;;;;;;9.70;100.00;102313.72;10456260;28;20040;-74
2024/02/20 18:54:24;;;;;;;13.57;5.32;;;;;;;9.68;100.00;102306.75;10455187;28;20120;-74
2024/02/20 18:59:25;;;;;;;5.47;3.40;;;;;;;9.63;100.00;102309.91;10453656;28;20120;-75
2024/02/20 19:04:25;;;;;;;20.10;6.38;;;;;;;9.66;100.00;102309.59;10454935;28;20151;-74
2024/02/20 19:09:26;;;;;;;6.32;4.70;;;;;;;9.64;100.00;102299.97;10454703;28;20036;-74
2024/02/20 19:14:26;;;;;;;6.82;3.13;;;;;;;9.63;100.00;102309.91;10452575;28;20072;-74
2024/02/20 19:19:27;;;;;;;9.00;4.03;;;;;;;9.66;100.00;102284.41;10452438;28;20033;-74
2024/02/20 19:24:28;;;;;;;13.40;3.72;;;;;;;9.68;100.00;102291.38;10453942;28;20045;-74
2024/02/20 19:29:29;;;;;;;12.10;3.08;;;;;;;9.68;100.00;102288.66;10454354;28;20456;-74
2024/02/20 19:34:29;;;;;;;6.43;4.05;;;;;;;9.77;100.00;102270.66;10453483;28;20073;-75
2024/02/20 19:39:30;;;;;;;7.43;3.83;;;;;;;9.85;100.00;102269.84;10454334;28;20041;-74
2024/02/20 19:44:31;;;;;;;12.27;4.03;;;;;;;9.85;100.00;102269.84;10453034;28;20477;-75
2024/02/20 19:49:31;;;;;;;12.20;2.75;;;;;;;9.90;100.00;102256.69;10453580;28;20116;-75
2024/02/20 19:54:32;;;;;;;5.53;2.70;;;;;;;9.90;100.00;102252.13;10453344;28;20044;-74
2024/02/20 19:59:32;;;;;;;4.30;3.03;;;;;;;9.86;100.00;102248.06;10453758;28;20346;-73
2024/02/20 20:04:32;;;;;;;10.27;3.75;;;;;;;9.92;100.00;102257.38;10452056;28;20118;-74
2024/02/20 20:09:33;;;;;;;5.50;3.60;;;;;;;9.85;100.00;102251.75;10453737;28;20029;-74
2024/02/20 20:14:33;;;;;;;12.23;3.80;;;;;;;9.86;100.00;102239.06;10451827;28;20391;-75
2024/02/20 20:19:34;;;;;;;4.97;3.65;;;;;;;9.92;100.00;102255.53;10435283;28;20119;-74
2024/02/20 20:24:35;;;;;;;8.15;2.95;;;;;;;9.84;100.00;102249.22;10457623;28;20071;-75
2024/02/20 20:29:35;;;;;;;7.78;3.20;;;;;;;9.80;100.00;102224.34;10443518;28;20403;-75
2024/02/20 20:34:37;;;;;;;11.60;3.60;;;;;;;9.73;100.00;102234.94;10461090;28;20084;-74
2024/02/20 20:39:38;;;;;;;7.60;2.65;;;;;;;9.80;100.00;102218.09;10442093;28;20213;-75
2024/02/20 20:44:39;;;;;;;9.02;5.38;;;;;;;9.65;100.00;102243.00;10459831;28;20116;-74
2024/02/20 20:49:44;;;;;;;3.75;2.65;;;;;;;9.58;100.00;102251.91;10459445;28;20067;-74
2024/02/20 20:54:44;;;;;;;12.63;2.75;;;;;;;9.50;100.00;102233.75;10460329;28;20040;-74
2024/02/20 20:59:45;;;;;;;10.57;3.22;;;;;;;9.52;100.00;102240.72;10459023;28;20076;-75
2024/02/20 21:04:45;;;;;;;8.02;2.85;;;;;;;9.60;100.00;102242.63;10459788;28;20115;-74
2024/02/20 21:09:46;;;;;;;8.23;2.97;;;;;;;9.60;100.00;102244.47;10461940;28;20523;-76
2024/02/20 21:14:46;;;;;;;6.80;2.55;;;;;;;9.57;100.00;102244.78;10458570;28;20123;-75
2024/02/20 21:19:47;;;;;;;5.20;2.85;;;;;;;9.55;100.00;102226.88;10458143;28;20110;-76
2024/02/20 21:24:47;;;;;;;36.85;5.32;;;;;;;9.50;100.00;102226.50;10458502;28;20120;-74
2024/02/20 21:29:49;;;;;;;6.07;3.47;;;;;;;9.52;100.00;102221.78;10440846;28;20036;-77
2024/02/20 21:34:49;;;;;;;5.97;3.63;;;;;;;9.49;100.00;102238.31;10440116;28;20095;-76
2024/02/20 21:39:49;;;;;;;10.60;3.45;;;;;;;9.47;100.00;102228.66;10457621;28;20106;-76
2024/02/20 21:44:50;;;;;;;12.73;4.30;;;;;;;9.38;100.00;102227.78;10457944;28;20167;-75
2024/02/20 21:49:50;;;;;;;8.65;4.13;;;;;;;9.33;100.00;102232.78;10457259;28;20429;-74
2024/02/20 21:54:51;;;;;;;8.68;3.95;;;;;;;9.32;100.00;102229.25;10457882;28;20091;-75
2024/02/20 21:59:51;;;;;;;8.70;4.57;;;;;;;9.26;100.00;102215.50;10456675;28;20106;-75
2024/02/20 22:04:52;;;;;;;6.45;4.10;;;;;;;9.21;100.00;102207.00;10457831;28;20044;-77
2024/02/20 22:09:52;;;;;;;13.13;3.78;;;;;;;9.16;100.00;102204.78;10456430;28;20147;-76
2024/02/20 22:14:52;;;;;;;12.73;5.07;;;;;;;9.18;100.00;102202.75;10456409;28;20044;-75
2024/02/20 22:19:53;;;;;;;11.35;5.22;;;;;;;9.18;100.00;102191.09;10455764;28;20076;-75
2024/02/20 22:24:53;;;;;;;16.92;5.88;;;;;;;9.19;100.00;102198.19;10456756;28;20040;-75
2024/02/20 22:29:54;;;;;;;23.20;6.43;;;;;;;9.18;100.00;102194.66;10455759;28;20033;-76
2024/02/20 22:34:54;;;;;;;15.65;5.25;;;;;;;9.11;100.00;102179.22;10455019;28;20415;-77
2024/02/20 22:39:54;;;;;;;27.65;5.53;;;;;;;9.06;100.00;102185.09;10454603;28;20041;-75